Latest Weather Observations for Toowoomba

IDQ60901

Issued at 4:41 pm EST Monday 31 August 2015 (issued every 10 minutes, with the page automatically refreshed every 10 minutes)

About weather observations | Map of Brisbane area stations | Latest observations for Brisbane area | Other Formats
Station Details ID: 041529 Name: TOOWOOMBA AIRPORT Lat: -27.54 Lon: 151.91 Height: 640.9 m
Data from the previous 72 hours. | See also: Recent months at Toowoomba
Date/Time
EST
Tmp

°C
App
Tmp
°C
Dew
Point
°C
Rel
Hum
%
Delta-T

°C
Wind Press
QNH
hPa
Press
MSL
hPa
Rain
since
9 am
mm
Dir
 
Spd
km/h
Gust
km/h
Spd
kts
Gust
kts
31/04:30pm 15.6 9.2 -1.9 30 7.4 WSW 22 30 12 16 1016.4 1015.5 0.0
31/04:00pm 16.2 9.4 -1.8 29 7.7 WSW 24 32 13 17 1016.1 1015.2 0.0
31/03:30pm 16.5 9.4 -1.6 29 7.8 WSW 26 39 14 21 1016.1 1015.2 0.0
31/03:00pm 16.4 9.2 -2.1 28 7.8 W 26 35 14 19 1016.2 1015.3 0.0
31/02:30pm 16.6 9.8 -2.0 28 7.9 WSW 24 35 13 19 1016.5 1015.6 0.0
31/02:00pm 16.6 9.5 -4.0 24 8.4 WSW 24 37 13 20 1016.6 1015.8 0.0
31/01:30pm 16.8 11.1 -0.9 30 7.7 WSW 19 32 10 17 1017.0 1016.1 0.0
31/01:00pm 15.9 10.1 -1.2 31 7.4 WSW 19 26 10 14 1017.2 1016.3 0.0
31/12:30pm 16.2 10.9 -0.9 31 7.4 W 17 24 9 13 1017.3 1016.4 0.0
31/12:00pm 15.8 10.8 1.2 37 6.6 W 17 30 9 16 1017.4 1016.5 0.0
31/11:30am 14.7 10.3 0.5 38 6.3 W 13 20 7 11 1017.8 1016.9 0.0
31/11:00am 14.3 10.4 3.2 47 5.2 WSW 13 19 7 10 1018.3 1017.5 0.0
31/10:30am 13.6 9.2 2.5 47 5.1 WSW 15 26 8 14 1018.7 1017.8 0.0
31/10:00am 12.9 8.1 2.7 50 4.6 WSW 17 22 9 12 1019.1 1018.2 0.0
31/09:30am 11.7 8.2 3.7 58 3.7 SW 11 17 6 9 1019.2 1018.3 0.0
31/09:00am 10.1 6.0 2.2 58 3.5 WSW 13 19 7 10 1019.3 1018.5 0.2
31/08:30am 8.8 4.7 2.2 63 2.9 WSW 13 15 7 8 1019.2 1018.3 0.2
31/08:00am 8.0 4.4 2.7 69 2.3 W 11 15 6 8 1019.0 1018.1 0.2
31/07:30am 6.9 3.5 2.0 71 2.1 WSW 9 11 5 6 1018.8 1017.9 0.2
31/07:00am 5.7 1.9 1.8 76 1.6 WSW 11 15 6 8 1018.8 1017.9 0.2
31/06:30am 4.4 0.5 0.9 78 1.4 WSW 11 13 6 7 1018.3 1017.5 0.2
31/06:00am 4.3 1.3 0.8 78 1.4 W 6 9 3 5 1018.1 1017.3 0.2
31/05:30am 4.5 0.5 0.8 77 1.5 WSW 11 13 6 7 1018.0 1017.2 0.2
31/05:00am 5.2 2.0 1.0 74 1.7 WSW 7 9 4 5 1018.0 1017.2 0.2
31/04:30am 5.4 1.9 1.0 73 1.8 W 9 11 5 6 1018.0 1017.2 0.2
31/04:00am 6.0 1.3 1.0 70 2.1 SW 15 19 8 10 1017.8 1016.9 0.2
31/03:30am 6.4 1.7 1.1 69 2.2 SW 15 20 8 11 1018.0 1017.2 0.2
31/03:00am 6.7 2.0 1.2 68 2.3 SW 15 20 8 11 1018.2 1017.4 0.2
31/02:30am 6.4 2.1 0.9 68 2.3 SW 13 17 7 9 1018.6 1017.7 0.2
31/02:00am 6.8 2.1 1.1 67 2.4 SW 15 19 8 10 1018.8 1017.9 0.2
31/01:30am 7.2 2.5 1.1 65 2.5 SW 15 20 8 11 1019.0 1018.1 0.2
31/01:00am 7.5 2.1 1.4 65 2.6 SSW 19 22 10 12 1019.2 1018.3 0.2
31/12:30am 7.8 2.3 1.9 66 2.5 SSW 20 26 11 14 1019.2 1018.3 0.2
31/12:00am 7.7 2.3 2.2 68 2.4 SSW 20 26 11 14 1019.5 1018.7 0.2
 
Date/Time
EST
Tmp

°C
App
Tmp
°C
Dew
Point
°C
Rel
Hum
%
Delta-T

°C
Wind Press
QNH
hPa
Press
MSL
hPa
Rain
since
9 am
mm
Dir
 
Spd
km/h
Gust
km/h
Spd
kts
Gust
kts
30/11:30pm 7.4 2.1 2.1 69 2.3 SW 19 24 10 13 1019.8 1019.0 0.2
30/11:00pm 8.1 2.8 2.1 66 2.6 SW 19 24 10 13 1019.9 1019.1 0.2
30/10:30pm 7.5 3.5 2.6 71 2.1 WSW 13 17 7 9 1020.1 1019.3 0.2
30/10:00pm 8.1 3.7 2.8 69 2.3 WSW 15 19 8 10 1020.0 1019.2 0.2
30/09:30pm 8.3 3.5 2.8 68 2.4 WSW 17 20 9 11 1020.1 1019.3 0.2
30/09:00pm 8.8 4.1 3.0 67 2.6 SW 17 22 9 12 1019.9 1019.1 0.2
30/08:30pm 8.8 4.5 3.0 67 2.6 WSW 15 20 8 11 1019.8 1019.0 0.2
30/08:00pm 8.8 5.2 2.8 66 2.6 WSW 11 15 6 8 1019.7 1018.9 0.2
30/07:30pm 9.3 5.3 2.6 63 3.0 WSW 13 17 7 9 1019.3 1018.5 0.2
30/07:00pm 10.5 5.4 2.8 59 3.4 WSW 19 24 10 13 1018.8 1017.9 0.2
30/06:30pm 11.2 5.9 3.0 57 3.7 WSW 20 24 11 13 1018.3 1017.5 0.0
30/06:00pm 11.8 6.5 2.8 54 4.1 WSW 20 26 11 14 1018.0 1017.2 0.0
30/05:30pm 12.6 6.5 2.7 51 4.5 WSW 24 33 13 18 1017.8 1016.9 0.0
30/05:00pm 13.8 7.6 2.4 46 5.2 WSW 24 33 13 18 1017.4 1016.5 0.0
30/04:30pm 14.5 7.9 2.1 43 5.7 SW 26 35 14 19 1017.1 1016.2 0.0
30/04:00pm 15.4 9.4 3.2 44 5.7 SW 24 35 13 19 1017.1 1016.2 0.0
30/03:30pm 15.0 7.5 1.5 40 6.1 WSW 30 43 16 23 1017.1 1016.2 0.0
30/03:00pm 15.2 7.4 1.4 39 6.2 WSW 32 41 17 22 1017.2 1016.3 0.0
30/02:30pm 15.6 8.2 2.1 40 6.2 WSW 30 43 16 23 1017.4 1016.5 0.0
30/02:00pm 15.3 7.2 0.7 37 6.5 WSW 33 43 18 23 1017.5 1016.6 0.0
30/01:30pm 15.6 7.6 1.7 39 6.3 SW 33 44 18 24 1017.7 1016.8 0.0
30/01:00pm 15.1 7.4 2.3 42 5.9 WSW 32 41 17 22 1018.0 1017.2 0.0
30/12:30pm 15.0 7.3 2.5 43 5.8 WSW 32 41 17 22 1018.3 1017.5 0.0
30/12:00pm 15.0 7.5 3.2 45 5.5 WSW 32 44 17 24 1018.8 1017.9 0.0
30/11:30am 14.3 6.5 1.9 43 5.6 WSW 32 43 17 23 1019.4 1018.6 0.0
30/11:00am 14.3 7.2 3.5 48 5.1 SW 30 41 16 22 1019.9 1019.1 0.0
30/10:30am 13.6 6.5 3.7 51 4.6 SW 30 41 16 22 1020.5 1019.6 0.0
30/10:00am 13.3 6.4 2.8 49 4.8 SW 28 37 15 20 1020.8 1020.0 0.0
30/09:30am 12.5 5.7 3.2 53 4.3 SW 28 39 15 21 1021.0 1020.2 0.0
30/09:11am 12.5 5.8 3.5 54 4.2 WSW 28 46 15 25 1021.0 1020.2 0.0
30/09:00am 12.6 7.5 6.0 64 3.2 WSW 22 28 12 15 1021.0 1020.2 13.0
30/08:30am 11.2 7.3 6.9 75 2.1 WSW 17 24 9 13 1020.8 1020.0 13.0
30/08:00am 9.8 5.4 6.5 80 1.6 WSW 19 26 10 14 1020.5 1019.6 13.0
30/07:30am 8.9 5.0 7.0 88 0.9 SW 17 22 9 12 1019.8 1019.0 13.0
30/07:00am 7.8 3.8 6.7 93 0.5 SW 17 24 9 13 1019.8 1019.0 13.0
30/06:30am 7.4 4.3 7.3 99 0.0 WSW 13 17 7 9 1019.6 1018.8 13.0
30/06:00am 7.4 4.7 7.3 99 0.0 W 11 13 6 7 1019.6 1018.8 13.0
30/05:51am 7.4 5.1 7.3 99 0.0 W 9 13 5 7 1019.5 1018.7 13.0
30/05:30am 7.5 5.2 7.4 99 0.0 WSW 9 13 5 7 1019.4 1018.6 13.0
30/05:28am 7.6 4.9 7.5 99 0.0 WSW 11 13 6 7 1019.3 1018.5 13.0
30/05:03am 7.9 5.3 7.8 99 0.0 WSW 11 15 6 8 1019.4 1018.6 13.0
30/05:00am 7.9 5.3 7.8 99 0.0 W 11 15 6 8 1019.3 1018.5 13.0
30/04:30am 8.3 6.2 8.2 99 0.0 W 9 13 5 7 1019.3 1018.5 13.0
30/04:00am 8.4 5.9 8.3 99 0.0 W 11 13 6 7 1019.4 1018.6 13.0
30/03:36am 8.4 5.9 8.3 99 0.0 W 11 13 6 7 1019.5 1018.7 13.0
30/03:30am 8.4 5.9 8.3 99 0.0 W 11 13 6 7 1019.7 1018.9 13.0
30/03:00am 8.7 6.3 8.6 99 0.1 W 11 13 6 7 1019.7 1018.9 13.0
30/02:35am 8.8 6.8 8.7 99 0.1 W 9 13 5 7 1019.8 1019.0 13.0
30/02:30am 8.8 6.4 8.7 99 0.1 WSW 11 13 6 7 1019.9 1019.1 13.0
30/02:00am 9.2 6.9 9.1 99 0.1 WNW 11 15 6 8 1020.4 1019.5 13.0
30/01:45am 9.4 7.6 9.3 99 0.1 WNW 9 15 5 8 1020.4 1019.5 13.0
30/01:30am 9.5 7.7 9.4 99 0.1 W 9 13 5 7 1020.1 1019.3 13.0
30/01:00am 9.6 8.4 9.5 99 0.1 WSW 6 9 3 5 1020.7 1019.9 13.0
30/12:36am 9.7 9.6 9.6 99 0.1 CALM 0 6 0 3 1020.8 1020.0 13.0
30/12:33am 9.7 9.6 9.6 99 0.1 CALM 0 0 0 0 1020.7 1019.9 13.0
30/12:30am 9.7 9.6 9.6 99 0.1 CALM 0 0 0 0 1020.7 1019.9 13.0
30/12:00am 9.9 7.8 9.8 99 0.1 WSW 11 15 6 8 1021.7 1020.9 13.0
 
Date/Time
EST
Tmp

°C
App
Tmp
°C
Dew
Point
°C
Rel
Hum
%
Delta-T

°C
Wind Press
QNH
hPa
Press
MSL
hPa
Rain
since
9 am
mm
Dir
 
Spd
km/h
Gust
km/h
Spd
kts
Gust
kts
29/11:31pm 10.1 8.8 9.9 99 0.1 W 7 11 4 6 1021.6 1020.8 13.0
29/11:30pm 10.2 8.9 10.0 99 0.1 W 7 11 4 6 1021.6 1020.8 13.0
29/11:00pm 10.5 10.6 10.3 99 0.1 CALM 0 2 0 1 1021.5 1020.7 12.8
29/10:59pm 10.5 10.6 10.3 99 0.1 CALM 0 2 0 1 1021.5 1020.7 12.8
29/10:42pm 10.5 9.3 10.3 99 0.1 WSW 7 11 4 6 1021.7 1020.9 12.8
29/10:30pm 10.5 9.3 10.3 99 0.1 WSW 7 9 4 5 1021.7 1020.9 12.8
29/10:00pm 10.7 9.7 10.4 98 0.2 W 6 9 3 5 1021.7 1020.9 12.8
29/09:52pm 10.7 9.5 10.4 98 0.2 W 7 9 4 5 1022.0 1021.1 12.8
29/09:30pm 11.2 10.8 9.8 91 0.7 E 2 6 1 3 1022.0 1021.1 12.8
29/09:00pm 11.1 11.2 10.0 93 0.6 CALM 0 4 0 2 1022.1 1021.3 12.8
29/08:30pm 10.9 9.9 10.3 96 0.3 S 6 7 3 4 1022.1 1021.3 12.8
29/08:00pm 11.0 9.5 10.4 96 0.3 SE 9 11 5 6 1021.9 1021.0 12.6
29/07:30pm 10.9 9.4 10.4 97 0.3 SSW 9 13 5 7 1021.9 1021.0 12.6
29/07:00pm 10.9 8.6 10.4 97 0.3 E 13 17 7 9 1021.6 1020.8 12.2
29/06:30pm 10.7 9.1 10.1 96 0.3 SE 9 13 5 7 1021.5 1020.7 12.0
29/06:00pm 10.6 9.4 10.3 98 0.2 S 7 9 4 5 1022.0 1021.1 11.4
29/05:30pm 10.1 8.7 9.6 97 0.3 SSE 7 9 4 5 1021.5 1020.7 11.0
29/05:00pm 9.9 8.1 9.4 97 0.3 SW 9 13 5 7 1021.9 1021.0 9.8
29/04:30pm 10.3 7.4 9.8 97 0.3 W 15 19 8 10 1022.5 1021.7 8.6
29/04:00pm 11.1 7.4 10.2 94 0.5 W 20 28 11 15 1022.3 1021.5 6.4
29/03:30pm 12.2 10.2 11.4 95 0.4 WSW 13 17 7 9 1021.4 1020.6 5.0
29/03:25pm 12.1 10.3 11.0 93 0.6 WSW 11 15 6 8 1021.4 1020.6 4.6
29/03:00pm 13.0 12.2 11.2 89 1.0 WNW 6 9 3 5 1021.2 1020.4 2.4
29/02:38pm 14.4 13.5 10.6 78 2.1 ENE 6 9 3 5 1021.9 1021.0 0.6
29/02:30pm 14.8 13.5 10.0 73 2.6 E 7 9 4 5 1021.5 1020.7 0.0
29/02:00pm 16.2 14.4 9.4 64 3.6 E 9 11 5 6 1021.5 1020.7 0.0
29/01:30pm 16.1 14.2 9.1 63 3.7 E 9 11 5 6 1022.0 1021.1 0.0
29/01:00pm 16.2 13.1 8.7 61 4.0 ENE 15 17 8 9 1022.3 1021.5 0.0
29/12:30pm 16.6 14.5 8.3 58 4.4 ENE 9 15 5 8 1022.9 1022.1 0.0
29/12:00pm 16.9 14.8 8.1 56 4.6 NE 9 17 5 9 1023.4 1022.7 0.0
29/11:30am 17.9 16.0 9.0 56 4.8 NE 9 15 5 8 1023.9 1023.1 0.0
29/11:00am 17.2 15.1 8.1 55 4.8 NE 9 17 5 9 1024.4 1023.6 0.0
29/10:30am 16.6 14.6 8.6 59 4.2 NNE 9 15 5 8 1024.8 1024.1 0.0
29/10:00am 16.5 13.2 8.2 58 4.3 E 15 19 8 10 1025.0 1024.3 0.0
29/09:30am 15.5 11.5 6.8 56 4.4 ENE 17 22 9 12 1025.1 1024.4 0.0
29/09:00am 14.2 9.6 5.8 57 4.1 E 19 22 10 12 1025.0 1024.3 0.2
29/08:30am 13.3 9.2 6.4 63 3.4 E 17 20 9 11 1024.8 1024.1 0.2
29/08:00am 11.9 8.9 7.6 75 2.2 E 13 15 7 8 1024.6 1023.8 0.2
29/07:30am 11.0 8.7 7.5 79 1.7 E 9 13 5 7 1024.5 1023.7 0.2
29/07:00am 9.4 6.2 6.7 83 1.3 E 13 15 7 8 1024.3 1023.5 0.2
29/06:30am 8.5 4.8 4.5 76 1.8 E 13 13 7 7 1024.0 1023.2 0.2
29/06:00am 7.6 3.8 3.8 77 1.7 E 13 13 7 7 1023.9 1023.1 0.2
29/05:30am 7.8 3.9 3.3 73 2.0 E 13 13 7 7 1023.7 1022.9 0.2
29/05:00am 6.5 2.8 2.6 76 1.7 E 11 13 6 7 1023.4 1022.7 0.2
29/04:30am 7.6 3.6 2.9 72 2.1 E 13 13 7 7 1023.1 1022.3 0.2
29/04:00am 6.3 2.6 2.6 77 1.6 E 11 13 6 7 1023.3 1022.6 0.2
29/03:30am 6.9 3.2 2.6 74 1.9 E 11 13 6 7 1023.4 1022.7 0.2
29/03:00am 7.3 3.9 2.0 69 2.3 E 9 9 5 5 1023.7 1022.9 0.2
29/02:30am 8.5 5.7 2.3 65 2.7 S 6 11 3 6 1023.9 1023.1 0.2
29/02:00am 8.5 5.6 2.5 66 2.6 S 7 11 4 6 1024.3 1023.5 0.2
29/01:30am 8.7 5.8 2.5 65 2.7 SSE 7 9 4 5 1024.3 1023.5 0.2
29/01:00am 9.4 5.4 2.7 63 3.0 S 13 17 7 9 1024.3 1023.5 0.2
29/12:30am 9.5 5.9 2.8 63 3.0 S 11 15 6 8 1024.4 1023.6 0.2
29/12:00am 9.3 4.9 2.9 64 2.8 S 15 17 8 9 1024.3 1023.5 0.2
 
Date/Time
EST
Tmp

°C
App
Tmp
°C
Dew
Point
°C
Rel
Hum
%
Delta-T

°C
Wind Press
QNH
hPa
Press
MSL
hPa
Rain
since
9 am
mm
Dir
 
Spd
km/h
Gust
km/h
Spd
kts
Gust
kts
28/11:30pm 9.8 5.5 3.1 63 3.0 SSW 15 19 8 10 1024.5 1023.7 0.2
28/11:00pm 9.2 5.3 3.4 67 2.6 SSW 13 19 7 10 1024.8 1024.1 0.2
28/10:30pm 9.9 6.1 4.1 67 2.7 SSW 13 17 7 9 1024.9 1024.2 0.2
28/10:00pm 10.0 6.6 4.0 66 2.7 SSW 11 13 6 7 1025.0 1024.3 0.2
28/09:30pm 10.7 6.2 4.4 65 2.9 SSW 17 22 9 12 1024.9 1024.2 0.2
28/09:00pm 10.4 6.3 4.3 66 2.8 SSW 15 19 8 10 1025.0 1024.3 0.2
28/08:30pm 10.4 7.0 4.1 65 2.9 SSW 11 15 6 8 1025.1 1024.4 0.2
28/08:00pm 10.8 7.4 3.8 62 3.2 SSW 11 15 6 8 1024.9 1024.2 0.2
28/07:30pm 10.9 7.8 3.7 61 3.3 SW 9 11 5 6 1024.8 1024.1 0.2
28/07:00pm 11.3 7.5 3.8 60 3.4 SW 13 17 7 9 1024.2 1023.4 0.2
28/06:30pm 12.2 8.5 4.2 58 3.7 SW 13 20 7 11 1023.9 1023.1 0.2
28/06:00pm 12.5 9.0 3.7 55 4.1 SW 11 15 6 8 1023.4 1022.7 0.2
28/05:30pm 13.8 9.1 3.3 49 4.9 SW 17 22 9 12 1023.0 1022.2 0.2
28/05:00pm 14.8 9.4 2.7 44 5.6 SW 20 26 11 14 1022.7 1021.9 0.2

Latest Capital City Observations: Canberra | Sydney | Melbourne | Brisbane | Adelaide | Perth | Hobart | Darwin

Other Formats:

Comma delimited format used in spreadsheet applications
http://www.bom.gov.au/fwo/IDQ60901/IDQ60901.95551.axf

JavaScript Object Notation format (JSON) in row-major order
http://www.bom.gov.au/fwo/IDQ60901/IDQ60901.95551.json